createdAt,value
2022-10-03T00:01:21.644Z,3.92
2022-10-03T00:04:25.279Z,3.45
2022-10-03T00:07:03.051Z,3.97
2022-10-03T00:09:32.692Z,4.03
2022-10-03T00:12:10.770Z,3.75
2022-10-03T00:17:28.938Z,3.45
2022-10-03T00:20:02.934Z,3.70
2022-10-03T00:22:44.828Z,3.80
2022-10-03T00:25:25.478Z,3.83
2022-10-03T00:28:12.662Z,3.67
2022-10-03T00:30:55.578Z,3.90
2022-10-03T00:34:01.236Z,3.35
2022-10-03T00:36:47.731Z,3.40
2022-10-03T00:39:23.371Z,3.42
2022-10-03T00:42:16.796Z,3.30
2022-10-03T00:45:09.659Z,3.60
2022-10-03T00:48:02.864Z,3.28
2022-10-03T00:50:43.570Z,3.40
2022-10-03T00:53:37.359Z,3.33
2022-10-03T00:56:32.240Z,3.58
2022-10-03T00:59:12.899Z,3.33
2022-10-03T01:01:48.349Z,3.63
2022-10-03T01:04:33.666Z,3.30
2022-10-03T01:07:22.269Z,3.13
2022-10-03T01:10:01.801Z,3.75
2022-10-03T01:12:47.315Z,3.28
2022-10-03T01:15:29.704Z,3.67
2022-10-03T01:18:10.993Z,3.72
2022-10-03T01:20:52.610Z,3.50
2022-10-03T01:23:37.463Z,3.33
2022-10-03T01:26:22.204Z,3.55
2022-10-03T01:29:29.585Z,3.75
2022-10-03T01:32:22.801Z,3.50
2022-10-03T01:34:58.493Z,3.75
2022-10-03T01:37:51.317Z,3.85
2022-10-03T01:40:20.871Z,3.80
2022-10-03T01:43:22.001Z,4.28
2022-10-03T01:46:28.392Z,3.90
2022-10-03T01:49:03.114Z,4.40
2022-10-03T01:52:06.437Z,4.30
2022-10-03T01:54:46.490Z,3.65
2022-10-03T01:57:19.199Z,3.53
2022-10-03T01:59:48.599Z,3.70
2022-10-03T02:02:36.815Z,3.90
2022-10-03T02:05:53.134Z,4.03
2022-10-03T02:08:35.553Z,3.78
2022-10-03T02:11:08.398Z,3.90
2022-10-03T02:13:56.807Z,3.83
2022-10-03T02:16:52.737Z,3.47
2022-10-03T02:19:42.395Z,3.75
2022-10-03T02:22:29.564Z,3.50
2022-10-03T02:25:23.218Z,3.38
2022-10-03T02:28:11.985Z,3.55
2022-10-03T02:31:01.819Z,3.30
2022-10-03T02:33:51.855Z,3.67
2022-10-03T02:36:39.995Z,3.67
2022-10-03T02:39:22.994Z,3.47
2022-10-03T02:42:04.961Z,3.30
2022-10-03T02:44:52.191Z,3.08
2022-10-03T02:47:40.285Z,3.25
2022-10-03T02:50:21.839Z,3.17
2022-10-03T02:53:08.074Z,2.72
2022-10-03T02:55:43.604Z,3.22
2022-10-03T02:58:35.302Z,3.00
2022-10-03T03:01:23.254Z,2.75
2022-10-03T03:07:02.310Z,2.90
2022-10-03T03:12:50.610Z,2.50
2022-10-03T03:15:40.105Z,2.70
2022-10-03T03:18:31.592Z,2.40
2022-10-03T03:21:25.848Z,2.22
2022-10-03T03:24:22.366Z,2.30
2022-10-03T03:27:04.460Z,2.47
2022-10-03T03:29:52.103Z,2.70
2022-10-03T03:32:36.871Z,3.00
2022-10-03T03:35:19.709Z,2.40
2022-10-03T03:38:14.232Z,2.25
2022-10-03T03:40:46.626Z,2.20
2022-10-03T03:43:34.282Z,2.55
2022-10-03T03:46:22.905Z,2.13
2022-10-03T03:49:14.928Z,2.17
2022-10-03T03:51:54.095Z,2.35
2022-10-03T03:54:51.619Z,2.60
2022-10-03T03:57:18.296Z,2.28
2022-10-03T04:00:07.418Z,2.22
2022-10-03T04:02:38.443Z,2.42
2022-10-03T04:05:26.158Z,2.20
2022-10-03T04:08:17.681Z,2.10
2022-10-03T04:11:05.497Z,2.33
2022-10-03T04:14:02.517Z,2.47
2022-10-03T04:17:03.481Z,2.17
2022-10-03T04:19:39.012Z,2.20
2022-10-03T04:22:24.595Z,2.15
2022-10-03T04:24:57.156Z,2.17
2022-10-03T04:27:42.539Z,2.15
2022-10-03T04:30:17.697Z,2.20
2022-10-03T04:33:12.266Z,2.10
2022-10-03T04:36:03.368Z,1.95
2022-10-03T04:38:48.927Z,2.40
2022-10-03T04:41:27.707Z,2.58
2022-10-03T04:44:27.802Z,2.20
2022-10-03T04:47:07.697Z,2.17
2022-10-03T04:50:08.761Z,2.05
2022-10-03T04:53:04.917Z,2.33
2022-10-03T04:55:45.812Z,2.33
2022-10-03T04:58:31.118Z,2.30
2022-10-03T05:01:21.912Z,2.10
2022-10-03T05:04:11.694Z,2.63
2022-10-03T05:06:54.616Z,2.17
2022-10-03T05:09:35.340Z,2.33
2022-10-03T05:12:14.283Z,2.60
2022-10-03T05:14:57.522Z,2.00
2022-10-03T05:17:55.606Z,2.08
2022-10-03T05:20:48.765Z,3.53
2022-10-03T05:23:37.271Z,8.52
2022-10-03T05:26:44.075Z,13.25
2022-10-03T05:29:25.043Z,12.02
2022-10-03T05:32:38.443Z,10.35
2022-10-03T05:35:24.315Z,8.73
2022-10-03T05:37:51.027Z,6.20
2022-10-03T05:40:17.785Z,7.72
2022-10-03T05:42:51.209Z,8.43
2022-10-03T05:45:48.966Z,13.75
2022-10-03T05:51:43.543Z,13.73
2022-10-03T05:54:20.375Z,18.20
2022-10-03T05:57:02.357Z,20.30
2022-10-03T06:00:09.527Z,19.65
2022-10-03T06:02:54.953Z,10.30
2022-10-03T06:05:40.458Z,8.77
2022-10-03T06:08:20.955Z,6.03
2022-10-03T06:10:53.918Z,17.42
2022-10-03T06:13:45.582Z,10.73
2022-10-03T06:16:47.588Z,13.60
2022-10-03T06:19:35.566Z,13.23
2022-10-03T06:25:16.267Z,11.93
2022-10-03T06:28:02.489Z,11.57
2022-10-03T06:31:11.376Z,10.50
2022-10-03T06:34:15.511Z,11.15
2022-10-03T06:37:40.242Z,13.63
2022-10-03T06:40:24.402Z,17.15
2022-10-03T06:43:20.657Z,12.40
2022-10-03T06:46:06.077Z,16.25
2022-10-03T06:49:07.537Z,20.75
2022-10-03T06:51:56.191Z,17.42
2022-10-03T06:54:22.858Z,17.90
2022-10-03T06:56:52.907Z,17.33
2022-10-03T06:59:46.805Z,14.38
2022-10-03T07:02:19.618Z,15.80
2022-10-03T07:05:19.421Z,13.00
2022-10-03T07:08:18.159Z,14.73
2022-10-03T07:10:56.877Z,9.88
2022-10-03T07:13:31.191Z,7.88
2022-10-03T07:16:29.821Z,6.18
2022-10-03T07:19:20.102Z,17.88
2022-10-03T07:22:25.048Z,21.92
2022-10-03T07:25:03.693Z,12.95
2022-10-03T07:27:45.303Z,10.20
2022-10-03T07:30:18.348Z,9.77
2022-10-03T07:33:03.944Z,8.82
2022-10-03T07:36:18.151Z,10.63
2022-10-03T07:39:30.200Z,9.43
2022-10-03T07:42:12.052Z,28.02
2022-10-03T07:44:53.692Z,20.67
2022-10-03T07:47:52.183Z,25.70
2022-10-03T07:50:54.991Z,40.88
2022-10-03T07:53:46.061Z,38.38
2022-10-03T07:56:29.332Z,46.00
2022-10-03T07:58:59.712Z,41.25
2022-10-03T08:02:10.078Z,20.63
2022-10-03T08:04:39.911Z,16.60
2022-10-03T08:07:26.029Z,22.05
2022-10-03T08:10:13.815Z,77.70
2022-10-03T08:13:12.748Z,21.20
2022-10-03T08:16:03.401Z,20.13
2022-10-03T08:18:42.209Z,15.38
2022-10-03T08:21:41.395Z,16.95
2022-10-03T08:24:47.741Z,15.80
2022-10-03T08:27:35.200Z,69.63
2022-10-03T08:30:08.072Z,14.15
2022-10-03T08:32:58.586Z,13.15
2022-10-03T08:35:42.711Z,7.40
2022-10-03T08:38:31.992Z,7.55
2022-10-03T08:41:30.502Z,8.70
2022-10-03T08:44:36.219Z,8.52
2022-10-03T08:47:21.692Z,15.55
2022-10-03T08:49:54.287Z,22.30
2022-10-03T08:53:00.693Z,23.42
2022-10-03T08:55:51.820Z,22.73
2022-10-03T08:59:01.148Z,20.38
2022-10-03T09:01:53.277Z,27.05
2022-10-03T09:04:39.365Z,112.57
2022-10-03T09:07:41.722Z,28.38
2022-10-03T09:10:47.700Z,27.48
2022-10-03T09:13:37.598Z,52.10
2022-10-03T09:16:45.919Z,22.73
2022-10-03T09:19:45.015Z,63.40
2022-10-03T09:22:49.451Z,40.72
2022-10-03T09:25:42.301Z,40.20
2022-10-03T09:28:34.054Z,31.38
2022-10-03T09:31:04.021Z,18.75
2022-10-03T09:33:49.229Z,23.27
2022-10-03T09:36:15.960Z,26.55
2022-10-03T09:39:04.057Z,38.33
2022-10-03T09:41:47.885Z,55.40
2022-10-03T09:44:33.565Z,16.45
2022-10-03T09:47:45.586Z,15.98
2022-10-03T09:50:53.022Z,48.53
2022-10-03T09:53:30.098Z,10.93
2022-10-03T09:56:11.916Z,8.63
2022-10-03T09:59:22.835Z,6.78
2022-10-03T10:02:11.159Z,8.10
2022-10-03T10:05:09.359Z,13.35
2022-10-03T10:07:57.512Z,19.27
2022-10-03T10:10:42.604Z,20.95
2022-10-03T10:13:36.347Z,14.07
2022-10-03T10:16:29.166Z,8.52
2022-10-03T10:19:19.077Z,14.25
2022-10-03T10:22:09.802Z,16.73
2022-10-03T10:24:46.764Z,20.20
2022-10-03T10:27:35.329Z,26.00
2022-10-03T10:30:39.033Z,17.00
2022-10-03T10:33:36.876Z,28.02
2022-10-03T10:36:18.575Z,33.95
2022-10-03T10:39:28.646Z,30.08
2022-10-03T10:42:29.623Z,29.70
2022-10-03T10:45:33.456Z,28.80
2022-10-03T10:48:29.070Z,16.85
2022-10-03T10:51:14.572Z,27.90
2022-10-03T10:54:12.164Z,16.45
2022-10-03T10:57:07.882Z,15.27
2022-10-03T11:00:18.960Z,21.50
2022-10-03T11:03:13.465Z,10.30
2022-10-03T11:05:46.946Z,11.32
2022-10-03T11:08:28.714Z,8.35
2022-10-03T11:11:21.483Z,10.30
2022-10-03T11:14:15.041Z,8.57
2022-10-03T11:17:21.702Z,8.60
2022-10-03T11:20:10.235Z,5.45
2022-10-03T11:22:48.819Z,76.53
2022-10-03T11:25:30.596Z,43.63
2022-10-03T11:28:18.830Z,23.42
2022-10-03T11:31:22.842Z,19.90
2022-10-03T11:34:07.959Z,33.92
2022-10-03T11:37:16.623Z,17.13
2022-10-03T11:39:43.320Z,14.07
2022-10-03T11:42:37.540Z,12.80
2022-10-03T11:45:19.074Z,34.53
2022-10-03T11:47:51.620Z,40.47
2022-10-03T11:50:24.569Z,34.22
2022-10-03T11:53:27.245Z,16.77
2022-10-03T11:55:53.919Z,14.52
2022-10-03T11:58:38.413Z,19.20
2022-10-03T12:01:35.897Z,11.32
2022-10-03T12:04:11.869Z,17.00
2022-10-03T12:07:07.450Z,55.63
2022-10-03T12:09:44.874Z,23.38
2022-10-03T12:12:11.643Z,17.33
2022-10-03T12:14:49.041Z,15.05
2022-10-03T12:17:35.535Z,13.63
2022-10-03T12:20:23.905Z,21.15
2022-10-03T12:23:09.203Z,11.43
2022-10-03T12:25:40.578Z,14.25
2022-10-03T12:28:20.864Z,18.25
2022-10-03T12:31:00.788Z,15.27
2022-10-03T12:33:51.846Z,14.75
2022-10-03T12:36:28.010Z,16.63
2022-10-03T12:39:06.376Z,28.42
2022-10-03T12:41:50.999Z,55.28
2022-10-03T12:44:52.386Z,18.58
2022-10-03T12:47:56.999Z,13.52
2022-10-03T12:51:01.929Z,17.63
2022-10-03T12:53:38.658Z,17.35
2022-10-03T12:56:15.545Z,27.17
2022-10-03T12:59:03.703Z,28.92
2022-10-03T13:01:42.886Z,12.98
2022-10-03T13:04:48.926Z,18.08
2022-10-03T13:07:45.071Z,8.93
2022-10-03T13:10:35.246Z,9.45
2022-10-03T13:13:19.187Z,5.10
2022-10-03T13:16:24.635Z,5.05
2022-10-03T13:18:54.048Z,11.20
2022-10-03T13:21:45.625Z,7.57
2022-10-03T13:24:32.195Z,18.33
2022-10-03T13:27:17.531Z,10.45
2022-10-03T13:29:56.434Z,11.35
2022-10-03T13:32:42.364Z,7.05
2022-10-03T13:35:33.901Z,14.68
2022-10-03T13:38:09.883Z,19.38
2022-10-03T13:40:43.421Z,17.27
2022-10-03T13:43:15.118Z,10.32
2022-10-03T13:45:47.638Z,12.27
2022-10-03T13:48:20.566Z,8.02
2022-10-03T13:51:02.572Z,8.85
2022-10-03T13:53:47.497Z,7.75
2022-10-03T13:56:51.832Z,11.18
2022-10-03T13:59:48.660Z,7.53
2022-10-03T14:03:02.856Z,12.60
2022-10-03T14:05:48.695Z,18.27
2022-10-03T14:08:37.061Z,18.67
2022-10-03T14:11:22.785Z,18.00
2022-10-03T14:14:08.275Z,14.35
2022-10-03T14:16:40.950Z,13.07
2022-10-03T14:19:43.725Z,13.85
2022-10-03T14:23:02.405Z,11.77
2022-10-03T14:25:40.408Z,11.93
2022-10-03T14:31:07.264Z,11.77
2022-10-03T14:33:41.589Z,9.77
2022-10-03T14:36:21.469Z,9.85
2022-10-03T14:39:07.479Z,9.27
2022-10-03T14:41:37.564Z,9.73
2022-10-03T14:44:13.244Z,9.60
2022-10-03T14:46:50.580Z,8.23
2022-10-03T14:52:43.040Z,8.80
2022-10-03T14:55:28.958Z,7.90
2022-10-03T14:58:28.763Z,7.30
2022-10-03T15:01:13.025Z,7.10
2022-10-03T15:04:23.092Z,8.18
2022-10-03T15:06:56.970Z,7.15
2022-10-03T15:09:38.710Z,7.20
2022-10-03T15:12:24.681Z,7.25
2022-10-03T15:15:02.592Z,7.15
2022-10-03T15:18:09.199Z,6.07
2022-10-03T15:20:41.882Z,5.53
2022-10-03T15:23:33.224Z,6.63
2022-10-03T15:26:01.100Z,5.80
2022-10-03T15:28:42.195Z,4.60
2022-10-03T15:31:15.397Z,5.55
2022-10-03T15:33:44.368Z,5.45
2022-10-03T15:36:21.437Z,5.50
2022-10-03T15:38:55.219Z,5.70
2022-10-03T15:41:45.752Z,5.18
2022-10-03T15:44:22.088Z,5.15
2022-10-03T15:46:53.403Z,5.43
2022-10-03T15:49:32.984Z,5.18
2022-10-03T15:52:13.824Z,4.53
2022-10-03T15:54:45.142Z,4.82
2022-10-03T15:57:28.187Z,3.85
2022-10-03T16:00:03.030Z,4.70
2022-10-03T16:02:49.878Z,4.43
2022-10-03T16:05:25.447Z,4.80
2022-10-03T16:08:01.455Z,4.30
2022-10-03T16:10:59.923Z,4.30
2022-10-03T16:13:43.421Z,4.20
2022-10-03T16:16:28.649Z,4.13
2022-10-03T16:19:06.786Z,4.03
2022-10-03T16:21:42.952Z,4.15
2022-10-03T16:24:29.818Z,4.28
2022-10-03T16:27:05.222Z,4.30
2022-10-03T16:29:36.195Z,4.55
2022-10-03T16:32:15.011Z,4.20
2022-10-03T16:34:45.907Z,4.07
2022-10-03T16:37:27.748Z,4.15
2022-10-03T16:40:03.032Z,3.70
2022-10-03T16:42:45.767Z,4.10
2022-10-03T16:45:44.641Z,4.03
2022-10-03T16:48:38.809Z,4.07
2022-10-03T16:51:14.433Z,3.60
2022-10-03T16:53:44.968Z,3.85
2022-10-03T16:56:16.707Z,3.42
2022-10-03T16:58:53.979Z,3.83
2022-10-03T17:01:46.096Z,3.65
2022-10-03T17:04:25.988Z,3.55
2022-10-03T17:06:58.671Z,3.85
2022-10-03T17:09:46.335Z,3.80
2022-10-03T17:12:42.419Z,3.85
2022-10-03T17:15:22.257Z,3.85
2022-10-03T17:18:03.842Z,3.20
2022-10-03T17:20:47.954Z,3.30
2022-10-03T17:23:39.075Z,3.58
2022-10-03T17:26:09.741Z,3.17
2022-10-03T17:28:54.641Z,3.25
2022-10-03T17:31:29.292Z,3.25
2022-10-03T17:34:28.299Z,3.38
2022-10-03T17:37:33.248Z,3.05
2022-10-03T17:40:03.773Z,3.60
2022-10-03T17:42:45.909Z,3.15
2022-10-03T17:45:52.486Z,3.08
2022-10-03T17:48:26.560Z,3.33
2022-10-03T17:51:11.959Z,3.05
2022-10-03T17:53:39.326Z,3.03
2022-10-03T17:56:12.957Z,2.83
2022-10-03T17:58:45.814Z,2.60
2022-10-03T18:01:19.369Z,2.92
2022-10-03T18:03:53.345Z,3.17
2022-10-03T18:06:29.495Z,3.08
2022-10-03T18:08:57.546Z,3.00
2022-10-03T18:11:29.611Z,2.85
2022-10-03T18:14:16.441Z,3.00
2022-10-03T18:16:54.783Z,2.75
2022-10-03T18:19:46.097Z,3.20
2022-10-03T18:22:37.245Z,3.00
2022-10-03T18:25:35.428Z,2.88
2022-10-03T18:28:12.864Z,2.80
2022-10-03T18:30:52.393Z,3.35
2022-10-03T18:33:42.586Z,2.90
2022-10-03T18:36:20.833Z,2.95
2022-10-03T18:38:49.470Z,2.90
2022-10-03T18:41:18.068Z,2.90
2022-10-03T18:44:01.949Z,2.83
2022-10-03T18:46:43.388Z,3.17
2022-10-03T18:49:34.268Z,3.53
2022-10-03T18:52:33.675Z,3.40
2022-10-03T18:55:25.824Z,3.85
2022-10-03T18:58:25.271Z,4.05
2022-10-03T19:01:15.611Z,3.97
2022-10-03T19:03:51.209Z,4.32
2022-10-03T19:06:21.013Z,4.70
2022-10-03T19:08:57.837Z,5.18
2022-10-03T19:11:35.400Z,5.63
2022-10-03T19:14:08.662Z,5.65
2022-10-03T19:16:59.590Z,6.40
2022-10-03T19:19:44.463Z,6.57
2022-10-03T19:22:15.931Z,7.30
2022-10-03T19:24:58.438Z,6.60
2022-10-03T19:27:40.479Z,6.93
2022-10-03T19:30:08.725Z,6.68
2022-10-03T19:32:49.734Z,6.45
2022-10-03T19:35:21.217Z,6.78
2022-10-03T19:38:10.310Z,6.20
2022-10-03T19:41:00.091Z,6.40
2022-10-03T19:43:32.791Z,6.40
2022-10-03T19:46:16.433Z,6.50
2022-10-03T19:49:08.299Z,6.68
2022-10-03T19:51:35.191Z,6.57
2022-10-03T19:54:11.127Z,7.13
2022-10-03T19:56:40.566Z,6.47
2022-10-03T19:59:15.732Z,6.60
2022-10-03T20:01:45.521Z,6.15
2022-10-03T20:04:16.692Z,6.15
2022-10-03T20:06:53.252Z,6.38
2022-10-03T20:09:25.621Z,6.18
2022-10-03T20:11:58.630Z,6.25
2022-10-03T20:14:31.703Z,6.93
2022-10-03T20:17:02.291Z,6.15
2022-10-03T20:19:54.495Z,5.90
2022-10-03T20:22:23.992Z,5.80
2022-10-03T20:24:51.627Z,5.60
2022-10-03T20:27:38.967Z,5.50
2022-10-03T20:30:21.668Z,5.50
2022-10-03T20:32:49.377Z,5.60
2022-10-03T20:35:24.136Z,5.95
2022-10-03T20:38:04.012Z,6.32
2022-10-03T20:40:41.866Z,5.93
2022-10-03T20:43:27.137Z,5.88
2022-10-03T20:46:29.234Z,5.55
2022-10-03T20:49:25.093Z,5.90
2022-10-03T20:51:54.548Z,6.55
2022-10-03T20:54:23.821Z,5.97
2022-10-03T20:57:02.456Z,6.32
2022-10-03T20:59:51.558Z,5.97
2022-10-03T21:02:46.709Z,5.90
2022-10-03T21:05:37.400Z,5.55
2022-10-03T21:08:14.702Z,5.38
2022-10-03T21:10:49.204Z,5.68
2022-10-03T21:13:35.999Z,5.30
2022-10-03T21:16:14.890Z,4.85
2022-10-03T21:18:45.918Z,5.32
2022-10-03T21:21:23.140Z,5.53
2022-10-03T21:23:57.733Z,5.50
2022-10-03T21:26:29.313Z,5.43
2022-10-03T21:29:15.519Z,6.15
2022-10-03T21:32:05.532Z,5.43
2022-10-03T21:34:53.077Z,5.22
2022-10-03T21:37:27.986Z,5.00
2022-10-03T21:40:07.201Z,5.63
2022-10-03T21:42:58.207Z,5.28
2022-10-03T21:45:52.494Z,5.72
2022-10-03T21:48:38.254Z,5.40
2022-10-03T21:51:39.966Z,5.60
2022-10-03T21:54:47.099Z,5.80
2022-10-03T21:57:37.902Z,5.82
2022-10-03T22:00:11.694Z,5.63
2022-10-03T22:03:01.000Z,5.68
2022-10-03T22:05:52.742Z,5.20
2022-10-03T22:08:37.839Z,5.43
2022-10-03T22:11:46.427Z,5.20
2022-10-03T22:14:31.741Z,5.55
2022-10-03T22:17:29.017Z,5.32
2022-10-03T22:20:14.572Z,5.40
2022-10-03T22:22:58.359Z,5.25
2022-10-03T22:26:05.679Z,5.68
2022-10-03T22:28:38.486Z,5.50
2022-10-03T22:31:38.492Z,5.57
2022-10-03T22:34:46.254Z,5.80
2022-10-03T22:37:14.723Z,5.53
2022-10-03T22:39:42.085Z,5.60
2022-10-03T22:42:16.756Z,5.57
2022-10-03T22:44:46.474Z,6.40
2022-10-03T22:47:36.753Z,6.65
2022-10-03T22:50:10.416Z,6.03
2022-10-03T22:52:40.222Z,6.22
2022-10-03T22:55:10.350Z,6.53
2022-10-03T22:57:39.144Z,6.65
2022-10-03T23:00:15.030Z,5.93
2022-10-03T23:02:48.774Z,5.95
2022-10-03T23:05:53.030Z,6.35
2022-10-03T23:08:57.469Z,6.32
2022-10-03T23:11:27.463Z,6.15
2022-10-03T23:13:57.690Z,6.25
2022-10-03T23:16:42.879Z,5.97
2022-10-03T23:19:17.226Z,5.78
2022-10-03T23:21:46.168Z,6.00
2022-10-03T23:24:35.828Z,6.15
2022-10-03T23:27:21.448Z,6.10
2022-10-03T23:30:13.032Z,6.20
2022-10-03T23:32:48.905Z,6.32
2022-10-03T23:35:30.695Z,8.05
2022-10-03T23:38:01.336Z,7.45
2022-10-03T23:40:45.372Z,7.40
2022-10-03T23:43:36.155Z,7.38
2022-10-03T23:46:08.652Z,7.22
2022-10-03T23:49:11.216Z,7.90
2022-10-03T23:51:41.072Z,7.32
2022-10-03T23:54:12.176Z,6.97
2022-10-03T23:56:45.004Z,6.50
2022-10-03T23:59:25.310Z,7.28
